Time;durP1;ratioP1;P1;durP2;ratioP2;P2;SDS_P1;SDS_P2;PMS_P1;PMS_P2;Temp;Humidity;BMP_temperature;BMP_pressure;BME280_temperature;BME280_humidity;BME280_pressure;Samples;Min_cycle;Max_cycle;Signal;HPM_P1;HPM_P2
2023/03/02 00:00:45;;;;;;;21.77;13.43;;;5.20;89.70;;;;;;5060354;28;20020;-85
2023/03/02 00:03:13;;;;;;;22.05;14.63;;;5.20;90.20;;;;;;5063360;28;20039;-84
2023/03/02 00:05:40;;;;;;;22.92;14.95;;;5.20;90.60;;;;;;5092146;28;20032;-85
2023/03/02 00:08:08;;;;;;;25.40;15.90;;;5.10;91.10;;;;;;5096361;28;20074;-85
2023/03/02 00:10:35;;;;;;;22.17;14.63;;;5.20;91.60;;;;;;5096027;28;20028;-84
2023/03/02 00:13:01;;;;;;;25.90;15.85;;;5.10;92.00;;;;;;5111521;28;20073;-85
2023/03/02 00:15:27;;;;;;;25.85;16.33;;;5.10;92.40;;;;;;5077198;28;20113;-85
2023/03/02 00:17:53;;;;;;;27.30;16.52;;;5.00;93.00;;;;;;5086972;28;20028;-84
2023/03/02 00:20:18;;;;;;;27.60;17.27;;;5.00;93.60;;;;;;5060762;28;20025;-87
2023/03/02 00:22:45;;;;;;;26.83;16.85;;;5.10;93.90;;;;;;5076250;28;20523;-84
2023/03/02 00:25:13;;;;;;;28.40;17.58;;;5.00;94.30;;;;;;5060060;28;20039;-84
2023/03/02 00:27:39;;;;;;;27.85;18.40;;;5.00;94.90;;;;;;5059303;28;20043;-85
2023/03/02 00:30:06;;;;;;;29.08;18.67;;;5.00;95.60;;;;;;5094003;28;20020;-85
2023/03/02 00:32:33;;;;;;;28.02;18.75;;;4.90;96.20;;;;;;5059855;28;20039;-85
2023/03/02 00:34:58;;;;;;;31.77;19.55;;;4.90;96.70;;;;;;5059630;28;20048;-85
2023/03/02 00:37:27;;;;;;;28.98;20.27;;;4.90;97.10;;;;;;5059392;28;20066;-85
2023/03/02 00:39:53;;;;;;;30.02;19.20;;;4.90;97.60;;;;;;5076325;28;20032;-85
2023/03/02 00:42:19;;;;;;;29.80;20.10;;;4.90;98.10;;;;;;5076040;28;20130;-85
2023/03/02 00:44:45;;;;;;;34.58;22.15;;;4.90;98.30;;;;;;5059267;28;20467;-85
2023/03/02 00:47:10;;;;;;;31.05;20.83;;;4.80;98.80;;;;;;5059224;28;20066;-85
2023/03/02 00:49:36;;;;;;;39.92;22.27;;;4.80;99.40;;;;;;5076119;28;20106;-84
2023/03/02 00:52:03;;;;;;;38.15;22.67;;;4.70;99.80;;;;;;5059252;28;20441;-85
2023/03/02 00:54:29;;;;;;;39.53;23.48;;;4.70;99.90;;;;;;5058339;28;20025;-85
2023/03/02 00:56:55;;;;;;;36.03;22.92;;;4.70;99.90;;;;;;5059084;28;20365;-85
2023/03/02 00:59:26;;;;;;;38.75;24.15;;;4.70;99.90;;;;;;5075531;28;20024;-85
2023/03/02 01:01:57;;;;;;;44.15;25.63;;;4.70;99.90;;;;;;5060000;28;20024;-85
2023/03/02 01:04:33;;;;;;;41.13;25.10;;;4.60;99.90;;;;;;5076359;28;20020;-85
2023/03/02 01:07:02;;;;;;;45.05;25.25;;;4.60;99.90;;;;;;5075626;28;20406;-85
2023/03/02 01:09:28;;;;;;;39.35;23.67;;;4.60;99.90;;;;;;5075166;28;20040;-85
2023/03/02 01:11:53;;;;;;;44.08;26.42;;;4.60;99.90;;;;;;5075369;28;20020;-85
2023/03/02 01:14:19;;;;;;;37.25;23.77;;;4.60;99.90;;;;;;5075575;28;20024;-85
2023/03/02 01:16:46;;;;;;;41.00;24.45;;;4.60;99.90;;;;;;5058633;28;20024;-85
2023/03/02 01:19:12;;;;;;;40.58;24.77;;;4.50;99.90;;;;;;5075725;28;20464;-85
2023/03/02 01:21:38;;;;;;;44.60;25.15;;;4.50;99.90;;;;;;5058261;28;20024;-85
2023/03/02 01:24:05;;;;;;;42.45;25.13;;;4.50;99.90;;;;;;5058925;28;20016;-86
2023/03/02 01:26:30;;;;;;;42.85;24.67;;;4.50;99.90;;;;;;5058828;28;20059;-86
2023/03/02 01:28:56;;;;;;;42.65;25.05;;;4.50;99.90;;;;;;5058796;28;20047;-85
2023/03/02 01:31:22;;;;;;;40.85;23.65;;;4.40;99.90;;;;;;5093543;28;20050;-85
2023/03/02 01:33:48;;;;;;;40.83;22.30;;;4.40;99.90;;;;;;5074932;28;20574;-85
2023/03/02 01:36:14;;;;;;;39.85;23.05;;;4.40;99.90;;;;;;5058399;28;20051;-85
2023/03/02 01:38:39;;;;;;;41.20;23.92;;;4.40;99.90;;;;;;5058477;28;20032;-85
2023/03/02 01:41:05;;;;;;;41.88;25.00;;;4.40;99.90;;;;;;5058742;28;20035;-85
2023/03/02 01:43:31;;;;;;;37.15;21.83;;;4.40;99.90;;;;;;5075971;28;20044;-86
2023/03/02 01:45:57;;;;;;;38.45;22.05;;;4.30;99.90;;;;;;5093524;28;20032;-85
2023/03/02 01:48:28;;;;;;;40.70;22.40;;;4.30;99.90;;;;;;5075329;28;20020;-85
2023/03/02 01:50:56;;;;;;;39.35;21.95;;;4.30;99.90;;;;;;5075404;28;20027;-85
2023/03/02 01:53:25;;;;;;;38.25;21.98;;;4.40;99.90;;;;;;5075032;28;20024;-85
2023/03/02 01:55:51;;;;;;;39.15;22.80;;;4.30;99.90;;;;;;5093285;28;20561;-85
2023/03/02 01:58:17;;;;;;;43.15;23.63;;;4.30;99.90;;;;;;5058670;28;20020;-85
2023/03/02 02:00:43;;;;;;;41.65;22.77;;;4.20;99.90;;;;;;5075101;28;20371;-85
2023/03/02 02:03:30;;;;;;;38.42;22.83;;;4.20;99.90;;;;;;5074951;28;20057;-85
2023/03/02 02:06:16;;;;;;;38.30;22.33;;;4.20;99.90;;;;;;5075379;28;20031;-85
2023/03/02 02:08:44;;;;;;;41.50;22.27;;;4.20;99.90;;;;;;5078445;28;20186;-85
2023/03/02 02:11:11;;;;;;;39.03;23.40;;;4.20;99.90;;;;;;5078951;28;20024;-84
2023/03/02 02:13:37;;;;;;;39.08;22.10;;;4.10;99.90;;;;;;5061824;28;20065;-84
2023/03/02 02:16:04;;;;;;;42.53;24.13;;;4.20;99.90;;;;;;5097080;28;20027;-84
2023/03/02 02:18:29;;;;;;;41.75;22.83;;;4.10;99.90;;;;;;5096669;28;20115;-84
2023/03/02 02:20:55;;;;;;;38.90;23.33;;;4.10;99.90;;;;;;5078540;28;20447;-84
2023/03/02 02:23:41;;;;;;;41.13;22.05;;;4.10;99.90;;;;;;5061996;28;20032;-85
2023/03/02 02:26:33;;;;;;;43.92;23.77;;;4.10;99.90;;;;;;5078499;28;20082;-85
2023/03/02 02:29:11;;;;;;;43.00;22.50;;;4.10;99.90;;;;;;5078169;28;20020;-85
2023/03/02 02:31:51;;;;;;;45.05;24.15;;;4.00;99.90;;;;;;5078382;28;20451;-86
2023/03/02 02:34:28;;;;;;;41.92;23.40;;;4.00;99.90;;;;;;5078502;28;20035;-85
2023/03/02 02:36:58;;;;;;;42.38;23.13;;;4.00;99.90;;;;;;5078247;28;20028;-85
2023/03/02 02:39:29;;;;;;;42.83;24.20;;;4.00;99.90;;;;;;5078320;28;20020;-85
2023/03/02 02:41:57;;;;;;;;;;;4.00;99.90;;;;;;5078685;28;20024;-85
2023/03/02 02:44:22;;;;;;;40.65;21.90;;;3.90;99.90;;;;;;5078110;28;19904;-85
2023/03/02 02:46:48;;;;;;;38.67;21.77;;;3.90;99.90;;;;;;5061405;28;20028;-85
2023/03/02 02:49:29;;;;;;;39.28;21.42;;;3.90;99.90;;;;;;5061673;28;20024;-85
2023/03/02 02:51:55;;;;;;;38.03;20.95;;;3.90;99.90;;;;;;5078212;28;20024;-85
2023/03/02 02:54:22;;;;;;;39.40;22.20;;;3.80;99.90;;;;;;5078180;28;20031;-85
2023/03/02 02:56:49;;;;;;;39.08;21.60;;;3.90;99.90;;;;;;5078070;28;20067;-85
2023/03/02 02:59:22;;;;;;;42.35;23.13;;;3.80;99.90;;;;;;5078185;28;20023;-85
2023/03/02 03:01:48;;;;;;;43.75;23.90;;;3.80;99.90;;;;;;5077920;28;20361;-85
2023/03/02 03:04:19;;;;;;;37.47;21.65;;;3.80;99.90;;;;;;5078343;28;20050;-85
2023/03/02 03:06:58;;;;;;;42.53;22.20;;;3.80;99.90;;;;;;5078329;28;20020;-85
2023/03/02 03:09:25;;;;;;;40.70;21.73;;;3.80;99.90;;;;;;5096168;28;20101;-85
2023/03/02 03:12:20;;;;;;;39.05;21.67;;;3.80;99.90;;;;;;5061972;28;20039;-85
2023/03/02 03:14:46;;;;;;;37.85;20.67;;;3.70;99.90;;;;;;5077693;28;20031;-83
2023/03/02 03:17:12;;;;;;;40.05;22.20;;;3.70;99.90;;;;;;5063136;28;20024;-84
2023/03/02 03:19:47;;;;;;;38.05;20.27;;;3.70;99.90;;;;;;5074968;28;20063;-83
2023/03/02 03:22:14;;;;;;;35.38;20.45;;;3.70;99.90;;;;;;5095020;28;20036;-84
2023/03/02 03:24:42;;;;;;;41.15;22.27;;;3.60;99.90;;;;;;5080733;28;20042;-85
2023/03/02 03:27:09;;;;;;;38.80;21.70;;;3.60;99.90;;;;;;5094899;28;20035;-85
2023/03/02 03:29:37;;;;;;;40.45;22.35;;;3.60;99.90;;;;;;5097666;28;20024;-85
2023/03/02 03:32:03;;;;;;;43.85;22.45;;;3.60;99.90;;;;;;5091665;28;20020;-84
2023/03/02 03:34:29;;;;;;;46.85;22.52;;;3.50;99.90;;;;;;5064433;28;20099;-84
2023/03/02 03:37:00;;;;;;;39.38;21.40;;;3.50;99.90;;;;;;5079396;28;20036;-84
2023/03/02 03:39:30;;;;;;;42.17;21.83;;;3.50;99.90;;;;;;5078494;28;20082;-84
2023/03/02 03:41:56;;;;;;;44.43;22.33;;;3.50;99.90;;;;;;5078438;28;20372;-84
2023/03/02 03:44:22;;;;;;;39.58;20.85;;;3.40;99.90;;;;;;5095609;28;20043;-84
2023/03/02 03:46:48;;;;;;;41.08;22.33;;;3.50;99.90;;;;;;5060418;28;20430;-84
2023/03/02 03:49:13;;;;;;;42.13;22.33;;;3.40;99.90;;;;;;5060702;28;20067;-84
2023/03/02 03:51:39;;;;;;;39.85;20.80;;;3.40;99.90;;;;;;5077552;28;20482;-84
2023/03/02 03:54:07;;;;;;;41.42;22.08;;;3.40;99.90;;;;;;5077264;28;20456;-84
2023/03/02 03:56:36;;;;;;;40.80;21.63;;;3.40;99.90;;;;;;5095273;28;20024;-84
2023/03/02 03:59:06;;;;;;;39.92;21.15;;;3.40;99.90;;;;;;5076523;28;20027;-84
2023/03/02 04:01:50;;;;;;;40.63;21.35;;;3.30;99.90;;;;;;5095095;28;20077;-84
2023/03/02 04:04:19;;;;;;;40.35;21.10;;;3.30;99.90;;;;;;5076598;28;20107;-85
2023/03/02 04:06:45;;;;;;;42.88;21.02;;;3.30;99.90;;;;;;5076573;28;20077;-84
2023/03/02 04:09:11;;;;;;;37.95;21.20;;;3.30;99.90;;;;;;5094309;28;20425;-84
2023/03/02 04:11:39;;;;;;;43.58;21.65;;;3.20;99.90;;;;;;5059434;28;20025;-84
2023/03/02 04:14:06;;;;;;;41.28;21.92;;;3.20;99.90;;;;;;5094396;28;20032;-84
2023/03/02 04:16:33;;;;;;;41.03;21.23;;;3.20;99.90;;;;;;5076951;28;20065;-85
2023/03/02 04:18:59;;;;;;;40.40;21.95;;;3.20;99.90;;;;;;5076252;28;20024;-86
2023/03/02 04:21:25;;;;;;;39.08;20.33;;;3.20;99.90;;;;;;5094202;28;20031;-86
2023/03/02 04:23:51;;;;;;;41.15;21.73;;;3.20;99.90;;;;;;5075874;28;20123;-84
2023/03/02 04:26:17;;;;;;;45.40;22.63;;;3.10;99.90;;;;;;5059990;28;20052;-85
2023/03/02 04:28:42;;;;;;;41.15;21.33;;;3.10;99.90;;;;;;5078476;28;20456;-85
2023/03/02 04:31:08;;;;;;;41.40;21.20;;;3.10;99.90;;;;;;5077678;28;20410;-85
2023/03/02 04:33:34;;;;;;;41.75;21.70;;;3.10;99.90;;;;;;5078674;28;20114;-85
2023/03/02 04:36:00;;;;;;;46.55;21.75;;;3.10;99.90;;;;;;5079008;28;20028;-85
2023/03/02 04:38:28;;;;;;;43.28;21.50;;;3.10;99.90;;;;;;5077721;28;20024;-85
2023/03/02 04:40:57;;;;;;;42.60;21.15;;;3.00;99.90;;;;;;5061312;28;20054;-87
2023/03/02 04:43:24;;;;;;;44.78;22.02;;;3.00;99.90;;;;;;5077566;28;20119;-85
2023/03/02 04:45:51;;;;;;;43.97;21.90;;;3.00;99.90;;;;;;5079596;28;20034;-85
2023/03/02 04:48:17;;;;;;;42.92;21.08;;;3.00;99.90;;;;;;5079133;28;20020;-85
2023/03/02 04:50:43;;;;;;;44.92;22.30;;;3.00;99.90;;;;;;5061892;28;20024;-85
2023/03/02 04:53:10;;;;;;;47.92;22.63;;;2.90;99.90;;;;;;5078163;28;20028;-86
2023/03/02 04:55:37;;;;;;;43.90;21.55;;;3.00;99.90;;;;;;5061471;28;20533;-85
2023/03/02 04:58:09;;;;;;;43.80;21.50;;;2.90;99.90;;;;;;5077356;28;20024;-86
2023/03/02 05:00:35;;;;;;;43.72;22.52;;;2.90;99.90;;;;;;5077091;28;20035;-85
2023/03/02 05:03:02;;;;;;;43.30;20.75;;;2.90;99.90;;;;;;5078013;28;20032;-85
2023/03/02 05:05:29;;;;;;;46.08;21.75;;;2.90;99.90;;;;;;5077887;28;20028;-85
2023/03/02 05:07:59;;;;;;;48.00;22.88;;;2.90;99.90;;;;;;5077710;28;20364;-85
2023/03/02 05:10:26;;;;;;;43.28;21.15;;;2.90;99.90;;;;;;5077922;28;20396;-85
2023/03/02 05:13:03;;;;;;;46.92;22.42;;;2.80;99.90;;;;;;5096116;28;20464;-85
2023/03/02 05:15:32;;;;;;;45.17;21.33;;;2.90;99.90;;;;;;5077603;28;20431;-86
2023/03/02 05:17:58;;;;;;;41.97;20.35;;;2.80;99.90;;;;;;5093662;28;20032;-86
2023/03/02 05:20:29;;;;;;;46.63;22.08;;;2.80;99.90;;;;;;5059039;28;20031;-86
2023/03/02 05:22:55;;;;;;;;;;;2.80;99.90;;;;;;5060309;28;20035;-85
2023/03/02 05:25:22;;;;;;;40.45;18.92;;;2.80;99.90;;;;;;5093666;28;19904;-86
2023/03/02 05:27:48;;;;;;;40.90;19.15;;;2.70;99.90;;;;;;5079123;28;20028;-85
2023/03/02 05:30:13;;;;;;;43.97;21.33;;;2.70;99.90;;;;;;5059156;28;20056;-86
2023/03/02 05:32:39;;;;;;;38.85;18.73;;;2.70;99.90;;;;;;5058905;28;20031;-85
2023/03/02 05:35:05;;;;;;;45.00;21.20;;;2.70;99.90;;;;;;5058602;28;20386;-86
2023/03/02 05:37:31;;;;;;;40.92;20.30;;;2.70;99.90;;;;;;5093237;28;20032;-85
2023/03/02 05:39:57;;;;;;;38.85;21.00;;;2.70;99.90;;;;;;5075400;28;20016;-86
2023/03/02 05:42:23;;;;;;;40.80;19.63;;;2.70;99.90;;;;;;5061433;28;20032;-85
2023/03/02 05:44:48;;;;;;;38.25;19.33;;;2.70;99.90;;;;;;5079219;28;20028;-85
2023/03/02 05:47:14;;;;;;;43.50;21.05;;;2.70;99.90;;;;;;5079072;28;20040;-86
2023/03/02 05:49:40;;;;;;;38.47;19.38;;;2.70;99.90;;;;;;5097112;28;20024;-86
2023/03/02 05:52:05;;;;;;;41.88;19.73;;;2.60;99.90;;;;;;5096990;28;20024;-86
2023/03/02 05:54:31;;;;;;;43.45;20.38;;;2.60;99.90;;;;;;5079472;28;20039;-85
2023/03/02 05:56:57;;;;;;;41.55;21.17;;;2.60;99.90;;;;;;5074241;28;20223;-87
2023/03/02 05:59:23;;;;;;;40.15;20.55;;;2.60;99.90;;;;;;5022353;28;20123;-86
2023/03/02 06:01:49;;;;;;;41.10;19.40;;;2.60;99.90;;;;;;5039318;28;20021;-85
2023/03/02 06:04:15;;;;;;;45.72;20.73;;;2.50;99.90;;;;;;5039008;28;20029;-86
2023/03/02 06:06:41;;;;;;;41.80;19.92;;;2.50;99.90;;;;;;5055299;28;20086;-86
2023/03/02 06:09:06;;;;;;;40.63;20.83;;;2.50;99.90;;;;;;5051472;28;20052;-86
2023/03/02 06:11:32;;;;;;;41.80;20.35;;;2.50;99.90;;;;;;5062782;28;20448;-85
2023/03/02 06:13:58;;;;;;;49.55;23.23;;;2.50;99.90;;;;;;5079827;28;20484;-85
2023/03/02 06:16:23;;;;;;;42.55;21.15;;;2.50;99.90;;;;;;5062413;28;20066;-85
2023/03/02 06:18:49;;;;;;;44.55;21.02;;;2.50;99.90;;;;;;5079187;28;20055;-85
2023/03/02 06:21:14;;;;;;;44.85;21.02;;;2.40;99.90;;;;;;5062296;28;20209;-86
2023/03/02 06:23:40;;;;;;;42.17;21.23;;;2.40;99.90;;;;;;5063687;28;20127;-85
2023/03/02 06:26:10;;;;;;;47.53;22.70;;;2.40;99.90;;;;;;5080443;28;20032;-86
2023/03/02 06:28:37;;;;;;;40.30;20.60;;;2.40;99.90;;;;;;5079672;28;20468;-85
2023/03/02 06:31:03;;;;;;;42.67;20.50;;;2.40;99.90;;;;;;5096403;28;20017;-86
2023/03/02 06:33:29;;;;;;;47.67;20.95;;;2.40;99.90;;;;;;5120909;28;20042;-86
2023/03/02 06:35:55;;;;;;;42.20;19.67;;;2.40;99.90;;;;;;5103327;28;20158;-86
2023/03/02 06:38:21;;;;;;;43.92;20.10;;;2.40;99.90;;;;;;5119373;28;20024;-87
2023/03/02 06:40:47;;;;;;;43.83;19.60;;;2.40;99.90;;;;;;5102075;28;20032;-86
2023/03/02 06:43:15;;;;;;;40.20;19.30;;;2.40;99.90;;;;;;5076452;28;20043;-86
2023/03/02 06:45:40;;;;;;;40.67;19.63;;;2.40;99.90;;;;;;5067152;28;20115;-85
2023/03/02 06:48:06;;;;;;;41.90;20.08;;;2.30;99.90;;;;;;5063944;28;20052;-84
2023/03/02 06:50:33;;;;;;;40.15;19.00;;;2.30;99.90;;;;;;5080539;28;20027;-86
2023/03/02 06:52:58;;;;;;;41.92;19.35;;;2.30;99.90;;;;;;5078994;28;20089;-85
2023/03/02 06:55:24;;;;;;;43.22;20.50;;;2.30;99.90;;;;;;5079362;28;20361;-85
2023/03/02 06:57:50;;;;;;;40.55;19.95;;;2.30;99.90;;;;;;5065997;28;20055;-84
2023/03/02 07:00:17;;;;;;;38.47;18.30;;;2.30;99.90;;;;;;5081018;28;20360;-86
2023/03/02 07:02:48;;;;;;;41.50;18.75;;;2.30;99.90;;;;;;5097088;28;20031;-85
2023/03/02 07:05:14;;;;;;;35.63;16.73;;;2.30;99.90;;;;;;5097088;28;20028;-86
2023/03/02 07:07:40;;;;;;;43.15;18.35;;;2.30;99.90;;;;;;5062155;28;20031;-86
2023/03/02 07:10:07;;;;;;;40.10;18.65;;;2.30;99.90;;;;;;5061468;28;20074;-86
2023/03/02 07:12:33;;;;;;;38.38;18.83;;;2.30;99.90;;;;;;5062535;28;20039;-85
2023/03/02 07:14:58;;;;;;;36.50;17.88;;;2.30;99.90;;;;;;5079239;28;20016;-86
2023/03/02 07:17:24;;;;;;;37.75;17.48;;;2.40;99.90;;;;;;5063894;28;20024;-86
2023/03/02 07:19:50;;;;;;;36.17;17.20;;;2.40;99.90;;;;;;5064904;28;20024;-85
2023/03/02 07:22:15;;;;;;;38.03;18.65;;;2.40;99.90;;;;;;5079942;28;20035;-86
2023/03/02 07:24:41;;;;;;;34.78;17.27;;;2.40;99.90;;;;;;5064485;28;20025;-85
2023/03/02 07:27:07;;;;;;;35.58;17.50;;;2.40;99.90;;;;;;5064609;28;20051;-86
2023/03/02 07:29:32;;;;;;;37.95;17.73;;;2.40;99.90;;;;;;5100508;28;20020;-85
2023/03/02 07:31:58;;;;;;;38.67;17.88;;;2.40;99.90;;;;;;5066069;28;20035;-86
2023/03/02 07:34:24;;;;;;;39.25;17.88;;;2.40;99.90;;;;;;5077670;28;20582;-86
2023/03/02 07:36:51;;;;;;;36.35;16.75;;;2.40;99.90;;;;;;5079060;28;20058;-85
2023/03/02 07:39:17;;;;;;;36.45;17.42;;;2.40;99.90;;;;;;5097288;28;20055;-86
2023/03/02 07:41:43;;;;;;;35.70;16.20;;;2.50;99.90;;;;;;5078623;28;20073;-86
2023/03/02 07:44:09;;;;;;;33.25;15.45;;;2.50;99.90;;;;;;5079420;28;20028;-85
2023/03/02 07:46:34;;;;;;;33.22;15.05;;;2.50;99.90;;;;;;5062315;28;20035;-85
2023/03/02 07:49:01;;;;;;;35.88;17.17;;;2.50;99.90;;;;;;5080097;28;20031;-85
2023/03/02 07:51:27;;;;;;;35.70;16.98;;;2.50;99.90;;;;;;5079013;28;20080;-86
2023/03/02 07:53:52;;;;;;;39.65;16.60;;;2.50;99.90;;;;;;5096459;28;20036;-84
2023/03/02 07:56:19;;;;;;;42.45;16.98;;;2.60;99.90;;;;;;5061265;28;20032;-86
2023/03/02 07:58:45;;;;;;;38.72;17.77;;;2.60;99.90;;;;;;5060972;28;20030;-86
2023/03/02 08:01:11;;;;;;;37.78;17.48;;;2.60;99.90;;;;;;5077863;28;20476;-85
2023/03/02 08:03:37;;;;;;;38.25;17.33;;;2.70;99.90;;;;;;5077037;28;20027;-86
2023/03/02 08:06:10;;;;;;;36.53;18.20;;;2.70;99.90;;;;;;5082070;28;20070;-86
2023/03/02 08:08:36;;;;;;;35.15;15.60;;;2.70;99.90;;;;;;5078021;28;20044;-85
2023/03/02 08:11:14;;;;;;;38.85;17.15;;;2.80;99.90;;;;;;5076357;28;20124;-85
2023/03/02 08:13:41;;;;;;;35.88;16.83;;;2.80;99.90;;;;;;5076587;28;20112;-85
2023/03/02 08:16:08;;;;;;;34.28;17.40;;;2.80;99.90;;;;;;5077631;28;20028;-84
2023/03/02 08:18:35;;;;;;;36.97;17.70;;;2.90;99.90;;;;;;5095061;28;20020;-84
2023/03/02 08:21:01;;;;;;;35.10;16.00;;;2.90;99.90;;;;;;5077632;28;20443;-85
2023/03/02 08:23:27;;;;;;;34.97;16.98;;;3.00;99.90;;;;;;5078426;28;20032;-85
2023/03/02 08:25:53;;;;;;;38.13;16.25;;;3.00;99.90;;;;;;5059362;28;20031;-85
2023/03/02 08:28:19;;;;;;;38.88;17.83;;;3.10;99.90;;;;;;5077786;28;20032;-87
2023/03/02 08:30:54;;;;;;;33.17;16.45;;;3.10;99.90;;;;;;5060022;28;20119;-85
2023/03/02 08:33:20;;;;;;;36.85;16.98;;;3.20;99.90;;;;;;5077550;28;20047;-85
2023/03/02 08:35:54;;;;;;;37.70;16.48;;;3.20;99.90;;;;;;5060277;28;20024;-85
2023/03/02 08:38:20;;;;;;;32.58;16.33;;;3.30;99.90;;;;;;5076727;28;20044;-85
2023/03/02 08:40:45;;;;;;;38.88;17.25;;;3.30;99.90;;;;;;5077913;28;20028;-85
2023/03/02 08:43:11;;;;;;;38.90;17.08;;;3.30;99.90;;;;;;5060868;28;20090;-85
2023/03/02 08:45:37;;;;;;;36.40;16.85;;;3.40;99.90;;;;;;5060765;28;20482;-84
2023/03/02 08:48:02;;;;;;;31.90;15.27;;;3.50;99.90;;;;;;5061014;28;20024;-83
2023/03/02 08:50:28;;;;;;;38.28;18.13;;;3.50;99.90;;;;;;5059798;28;20528;-85
2023/03/02 08:52:54;;;;;;;34.88;17.52;;;3.50;99.90;;;;;;5059267;28;20029;-84
2023/03/02 08:55:20;;;;;;;35.65;17.27;;;3.50;99.90;;;;;;5077021;28;20020;-85
2023/03/02 08:57:46;;;;;;;32.65;15.80;;;3.60;99.90;;;;;;5060515;28;20069;-84
2023/03/02 09:00:15;;;;;;;34.42;16.77;;;3.60;99.90;;;;;;5076653;28;20341;-84
2023/03/02 09:02:41;;;;;;;40.75;17.05;;;3.60;99.90;;;;;;5077411;28;20024;-85
2023/03/02 09:05:07;;;;;;;33.10;16.35;;;3.70;99.90;;;;;;5061282;28;20032;-85
2023/03/02 09:07:32;;;;;;;37.15;17.85;;;3.70;99.90;;;;;;5059694;28;20016;-85
2023/03/02 09:09:58;;;;;;;39.50;17.30;;;3.80;99.90;;;;;;5061649;28;20052;-84
2023/03/02 09:12:24;;;;;;;38.17;17.13;;;3.80;99.90;;;;;;5059428;28;20135;-85
2023/03/02 09:14:49;;;;;;;38.70;17.05;;;3.90;99.90;;;;;;5058834;28;20089;-86
2023/03/02 09:17:16;;;;;;;37.30;16.70;;;3.90;99.90;;;;;;5058656;28;20036;-85
2023/03/02 09:19:41;;;;;;;33.70;16.17;;;3.90;99.90;;;;;;5059521;28;20024;-84
2023/03/02 09:22:08;;;;;;;31.80;15.88;;;4.00;99.90;;;;;;5076063;28;20032;-84
2023/03/02 09:24:35;;;;;;;32.90;16.45;;;4.00;99.90;;;;;;5096448;28;20089;-85
2023/03/02 09:27:02;;;;;;;33.00;16.30;;;4.10;99.90;;;;;;5058693;28;20031;-86
2023/03/02 09:29:28;;;;;;;33.35;16.35;;;4.20;99.90;;;;;;5074850;28;20028;-87
2023/03/02 09:31:54;;;;;;;35.17;16.38;;;4.20;99.90;;;;;;5074806;28;20024;-86
2023/03/02 09:34:19;;;;;;;38.35;17.98;;;4.30;99.90;;;;;;5075196;28;20036;-87
2023/03/02 09:36:45;;;;;;;36.80;16.00;;;4.40;99.90;;;;;;5074697;28;20527;-85
2023/03/02 09:39:11;;;;;;;31.25;16.25;;;4.40;99.90;;;;;;5092934;28;20024;-85
2023/03/02 09:41:39;;;;;;;30.48;16.10;;;4.50;99.90;;;;;;5059609;28;20063;-86
2023/03/02 09:44:42;;;;;;;32.60;16.70;;;4.60;99.90;;;;;;5092111;28;20016;-85
2023/03/02 09:47:31;;;;;;;31.77;16.42;;;4.60;99.90;;;;;;5116874;28;20020;-84
2023/03/02 09:50:19;;;;;;;34.70;16.00;;;4.70;99.90;;;;;;5092694;28;20062;-85
2023/03/02 09:52:54;;;;;;;31.13;15.15;;;4.80;99.90;;;;;;5095010;28;20032;-85
2023/03/02 09:55:24;;;;;;;31.65;15.65;;;4.90;99.90;;;;;;5097687;28;20028;-85
2023/03/02 09:57:52;;;;;;;31.80;16.08;;;5.00;99.90;;;;;;5087175;28;20031;-84
2023/03/02 10:00:21;;;;;;;35.88;16.48;;;5.10;99.90;;;;;;5094354;28;20177;-84
2023/03/02 10:02:55;;;;;;;28.40;15.32;;;5.20;99.90;;;;;;5076644;28;20016;-82
2023/03/02 10:05:26;;;;;;;31.70;15.93;;;5.20;99.90;;;;;;5075369;28;20027;-84
2023/03/02 10:07:52;;;;;;;30.88;15.75;;;5.40;99.90;;;;;;5074996;28;20085;-84
2023/03/02 10:10:23;;;;;;;30.48;16.10;;;5.40;99.90;;;;;;5058247;28;20522;-85
2023/03/02 10:13:09;;;;;;;33.30;17.02;;;5.50;99.90;;;;;;5075138;28;20077;-84
2023/03/02 10:15:40;;;;;;;30.48;15.98;;;5.60;99.90;;;;;;5075254;28;20036;-85
2023/03/02 10:18:11;;;;;;;28.20;15.13;;;5.70;99.90;;;;;;5075214;28;20162;-84
2023/03/02 10:20:59;;;;;;;34.03;16.20;;;5.80;99.90;;;;;;5093087;28;20033;-85
2023/03/02 10:23:45;;;;;;;27.73;14.27;;;5.90;99.90;;;;;;5075075;28;20464;-85
2023/03/02 10:26:36;;;;;;;30.65;14.43;;;6.10;99.90;;;;;;5075036;28;20062;-84
2023/03/02 10:29:20;;;;;;;29.33;14.45;;;6.20;99.90;;;;;;5077391;28;20024;-84
2023/03/02 10:31:51;;;;;;;26.92;14.40;;;6.30;99.90;;;;;;5078330;28;20028;-85
2023/03/02 10:34:17;;;;;;;27.65;14.65;;;6.40;99.90;;;;;;5096882;28;20036;-84
2023/03/02 10:36:46;;;;;;;24.98;13.40;;;6.50;99.90;;;;;;5061942;28;20024;-85
2023/03/02 10:39:14;;;;;;;25.63;13.77;;;6.60;99.90;;;;;;5096428;28;20017;-85
2023/03/02 10:41:48;;;;;;;30.48;13.57;;;6.70;99.90;;;;;;5078250;28;20016;-85
2023/03/02 10:44:26;;;;;;;25.27;13.27;;;6.80;99.90;;;;;;5096567;28;20107;-82
2023/03/02 10:46:52;;;;;;;29.50;12.93;;;6.90;99.90;;;;;;5078733;28;20369;-83
2023/03/02 10:49:26;;;;;;;24.42;12.93;;;7.10;99.90;;;;;;5096444;28;20024;-84
2023/03/02 10:52:16;;;;;;;23.63;13.18;;;7.20;99.90;;;;;;5077925;28;20027;-84
2023/03/02 10:54:42;;;;;;;23.25;12.75;;;7.40;99.90;;;;;;5088021;28;20430;-84
2023/03/02 10:57:35;;;;;;;23.63;12.25;;;7.50;99.90;;;;;;5078183;28;20097;-83
2023/03/02 11:00:23;;;;;;;24.05;12.88;;;7.50;99.90;;;;;;5078038;28;20016;-83
2023/03/02 11:02:54;;;;;;;20.95;11.35;;;7.70;99.90;;;;;;5096723;28;20028;-84
2023/03/02 11:05:26;;;;;;;21.75;11.55;;;7.80;99.90;;;;;;5078006;28;20078;-84
2023/03/02 11:07:58;;;;;;;21.55;12.05;;;8.00;99.90;;;;;;5077872;28;20109;-84
2023/03/02 11:10:28;;;;;;;19.83;11.38;;;8.10;99.90;;;;;;5077860;28;20055;-84
2023/03/02 11:12:54;;;;;;;18.98;10.75;;;8.20;99.90;;;;;;5095444;28;20537;-84
2023/03/02 11:15:27;;;;;;;18.33;10.60;;;8.30;99.90;;;;;;5061033;28;20024;-84
2023/03/02 11:18:04;;;;;;;20.30;12.23;;;8.40;99.90;;;;;;5095743;28;20052;-83
2023/03/02 11:20:42;;;;;;;20.10;11.98;;;8.50;99.90;;;;;;5077207;28;20399;-84
2023/03/02 11:23:17;;;;;;;19.42;11.52;;;8.60;99.90;;;;;;5095374;28;20039;-84
2023/03/02 11:25:57;;;;;;;18.90;11.15;;;8.70;99.90;;;;;;5077185;28;20044;-87
2023/03/02 11:28:35;;;;;;;17.92;10.32;;;8.80;99.90;;;;;;5076998;28;20021;-84
2023/03/02 11:31:05;;;;;;;19.77;11.30;;;9.00;99.90;;;;;;5077459;28;20028;-84
2023/03/02 11:33:41;;;;;;;17.87;10.77;;;9.10;99.90;;;;;;5078532;28;20433;-83
2023/03/02 11:36:36;;;;;;;19.65;11.20;;;9.20;99.90;;;;;;5077024;28;20024;-85
2023/03/02 11:39:08;;;;;;;18.42;10.50;;;9.40;99.90;;;;;;5094735;28;20028;-84
2023/03/02 11:41:35;;;;;;;19.60;10.77;;;9.50;99.90;;;;;;5095238;28;20020;-84
2023/03/02 11:44:13;;;;;;;21.70;12.00;;;9.60;99.90;;;;;;5077076;28;20028;-84
2023/03/02 11:46:38;;;;;;;19.42;11.07;;;9.70;99.90;;;;;;5077361;28;20408;-84
2023/03/02 11:49:12;;;;;;;20.63;11.82;;;9.80;99.70;;;;;;5078192;28;20043;-84
2023/03/02 11:51:47;;;;;;;18.30;10.35;;;9.90;99.20;;;;;;5077367;28;20028;-84
2023/03/02 11:54:22;;;;;;;17.70;10.55;;;10.00;98.20;;;;;;5077469;28;20036;-84
2023/03/02 11:56:48;;;;;;;17.85;10.43;;;10.10;98.20;;;;;;5077607;28;20072;-85
2023/03/02 11:59:19;;;;;;;17.58;9.60;;;10.20;97.60;;;;;;5060347;28;20024;-85
2023/03/02 12:01:48;;;;;;;16.63;9.75;;;10.30;97.70;;;;;;5060195;28;20082;-84
2023/03/02 12:04:27;;;;;;;16.75;9.40;;;10.40;97.70;;;;;;5077068;28;20543;-84
2023/03/02 12:06:53;;;;;;;17.90;9.60;;;10.50;97.40;;;;;;5078044;28;20107;-86
2023/03/02 12:09:22;;;;;;;16.05;9.70;;;10.60;97.20;;;;;;5079487;28;20079;-85
2023/03/02 12:11:55;;;;;;;16.52;9.88;;;10.70;96.50;;;;;;5097533;28;20051;-84
2023/03/02 12:14:38;;;;;;;15.50;9.30;;;10.80;96.20;;;;;;5076937;28;20035;-85
2023/03/02 12:17:30;;;;;;;18.02;11.07;;;10.90;95.00;;;;;;5076471;28;20043;-85
2023/03/02 12:20:07;;;;;;;;;;;11.00;95.00;;;;;;5077931;28;20020;-85
2023/03/02 12:22:34;;;;;;;18.92;9.93;;;11.10;94.20;;;;;;5077450;28;20006;-85
2023/03/02 12:25:22;;;;;;;17.15;9.75;;;11.20;94.80;;;;;;5060104;28;20555;-85
2023/03/02 12:27:51;;;;;;;16.55;9.80;;;11.20;94.40;;;;;;5076625;28;20099;-86
2023/03/02 12:30:26;;;;;;;16.98;10.13;;;11.30;94.00;;;;;;5094839;28;20039;-84
2023/03/02 12:33:09;;;;;;;15.27;9.63;;;11.40;93.70;;;;;;5076274;28;20035;-84
2023/03/02 12:35:34;;;;;;;14.98;8.88;;;11.50;93.30;;;;;;5076757;28;20021;-84
2023/03/02 12:38:05;;;;;;;15.40;10.40;;;11.60;93.10;;;;;;5059828;28;20031;-85
2023/03/02 12:40:33;;;;;;;17.35;10.20;;;11.70;93.00;;;;;;5076272;28;20020;-84
2023/03/02 12:43:17;;;;;;;15.10;9.68;;;11.80;92.30;;;;;;5094452;28;20375;-85
2023/03/02 12:45:52;;;;;;;17.23;10.50;;;11.80;91.50;;;;;;5076017;28;20034;-85
2023/03/02 12:48:29;;;;;;;17.73;10.45;;;11.90;91.70;;;;;;5076319;28;20498;-87